createdAt,value
2023-03-25T00:04:43.297Z,1.70
2023-03-25T00:09:45.476Z,1.58
2023-03-25T00:14:47.621Z,2.10
2023-03-25T00:19:51.267Z,1.70
2023-03-25T00:24:53.749Z,1.52
2023-03-25T00:29:55.850Z,1.95
2023-03-25T00:34:59.462Z,1.90
2023-03-25T00:40:01.664Z,1.58
2023-03-25T00:45:04.328Z,2.13
2023-03-25T00:50:08.892Z,2.00
2023-03-25T00:55:11.158Z,1.52
2023-03-25T01:00:15.727Z,1.63
2023-03-25T01:05:19.575Z,1.40
2023-03-25T01:10:21.951Z,1.67
2023-03-25T01:15:24.229Z,1.83
2023-03-25T01:20:27.654Z,1.80
2023-03-25T01:25:29.762Z,1.95
2023-03-25T01:30:32.880Z,2.08
2023-03-25T01:35:36.498Z,2.08
2023-03-25T01:40:38.635Z,1.92
2023-03-25T01:45:41.061Z,2.00
2023-03-25T01:50:49.491Z,1.42
2023-03-25T01:55:52.038Z,1.60
2023-03-25T02:00:54.920Z,1.90
2023-03-25T02:06:03.119Z,1.88
2023-03-25T02:11:06.486Z,1.55
2023-03-25T02:16:25.242Z,2.20
2023-03-25T02:22:04.044Z,1.73
2023-03-25T02:27:18.534Z,1.30
2023-03-25T02:32:34.717Z,1.10
2023-03-25T02:38:09.150Z,1.20
2023-03-25T02:43:18.972Z,1.30
2023-03-25T02:48:24.862Z,1.65
2023-03-25T02:53:30.791Z,2.28
2023-03-25T02:58:35.406Z,2.58
2023-03-25T03:03:37.638Z,2.00
2023-03-25T03:08:53.427Z,2.10
2023-03-25T03:14:20.147Z,2.55
2023-03-25T03:19:33.408Z,1.92
2023-03-25T03:24:39.364Z,2.05
2023-03-25T03:29:47.784Z,2.00
2023-03-25T03:34:54.962Z,2.00
2023-03-25T03:39:58.063Z,2.20
2023-03-25T03:45:05.312Z,2.53
2023-03-25T03:55:14.764Z,3.15
2023-03-25T04:00:22.361Z,2.72
2023-03-25T04:05:28.220Z,2.55
2023-03-25T04:10:37.651Z,2.85
2023-03-25T04:15:42.341Z,3.38
2023-03-25T04:20:44.520Z,3.42
2023-03-25T04:25:46.676Z,3.10
2023-03-25T04:30:50.553Z,2.67
2023-03-25T04:35:53.511Z,3.03
2023-03-25T04:40:56.022Z,2.28
2023-03-25T04:45:59.823Z,2.22
2023-03-25T04:51:02.410Z,2.55
2023-03-25T04:56:05.608Z,2.45
2023-03-25T05:01:16.475Z,1.88
2023-03-25T05:06:18.789Z,3.10
2023-03-25T05:11:20.884Z,2.42
2023-03-25T05:16:24.576Z,2.30
2023-03-25T05:21:26.670Z,2.40
2023-03-25T05:26:29.196Z,2.90
2023-03-25T05:31:32.849Z,2.65
2023-03-25T05:36:35.758Z,2.47
2023-03-25T05:41:38.177Z,3.00
2023-03-25T05:46:41.771Z,2.30
2023-03-25T05:51:43.912Z,2.20
2023-03-25T05:56:46.106Z,1.80
2023-03-25T06:01:49.629Z,2.20
2023-03-25T06:06:51.777Z,2.53
2023-03-25T06:11:53.859Z,2.45
2023-03-25T06:16:57.409Z,2.08
2023-03-25T06:22:00.874Z,2.00
2023-03-25T06:27:03.360Z,2.17
2023-03-25T06:32:07.865Z,2.20
2023-03-25T06:37:10.916Z,2.22
2023-03-25T06:42:13.090Z,1.95
2023-03-25T06:47:16.652Z,2.30
2023-03-25T06:52:18.776Z,2.35
2023-03-25T06:57:20.973Z,2.72
2023-03-25T07:02:24.547Z,2.50
2023-03-25T07:07:26.752Z,2.75
2023-03-25T07:12:28.865Z,2.65
2023-03-25T07:17:32.411Z,2.70
2023-03-25T07:22:34.686Z,2.58
2023-03-25T07:27:36.866Z,2.60
2023-03-25T07:32:40.460Z,2.08
2023-03-25T07:37:42.636Z,2.10
2023-03-25T07:42:45.044Z,2.40
2023-03-25T07:47:48.619Z,2.22
2023-03-25T07:52:52.364Z,2.15
2023-03-25T07:57:56.179Z,3.13
2023-03-25T08:03:01.868Z,2.05
2023-03-25T08:08:06.725Z,2.10
2023-03-25T08:13:09.053Z,1.73
2023-03-25T08:18:12.550Z,2.00
2023-03-25T08:23:15.094Z,2.05
2023-03-25T08:28:17.892Z,2.75
2023-03-25T08:33:23.326Z,2.30
2023-03-25T08:38:26.486Z,1.88
2023-03-25T08:43:29.843Z,2.70
2023-03-25T08:48:33.415Z,1.75
2023-03-25T08:53:35.548Z,1.55
2023-03-25T08:58:37.708Z,1.60
2023-03-25T09:03:41.268Z,2.00
2023-03-25T09:08:43.388Z,2.67
2023-03-25T09:13:52.703Z,1.90
2023-03-25T09:18:56.357Z,1.25
2023-03-25T09:23:58.657Z,1.20
2023-03-25T09:29:00.764Z,1.75
2023-03-25T09:34:04.488Z,2.05
2023-03-25T09:39:06.611Z,2.38
2023-03-25T09:44:18.145Z,2.08
2023-03-25T09:49:24.957Z,1.88
2023-03-25T09:54:31.671Z,1.73
2023-03-25T09:59:41.978Z,1.77
2023-03-25T10:05:11.001Z,2.42
2023-03-25T10:10:23.000Z,1.45
2023-03-25T10:15:32.752Z,1.73
2023-03-25T10:20:47.075Z,2.85
2023-03-25T10:25:55.796Z,1.95
2023-03-25T10:30:58.145Z,1.98
2023-03-25T10:36:03.431Z,2.95
2023-03-25T10:41:16.565Z,2.10
2023-03-25T10:46:26.243Z,2.42
2023-03-25T10:51:32.417Z,2.10
2023-03-25T10:56:37.429Z,2.50
2023-03-25T11:01:42.084Z,1.70
2023-03-25T11:06:52.772Z,1.90
2023-03-25T11:11:55.356Z,2.03
2023-03-25T11:17:00.258Z,1.50
2023-03-25T11:22:09.498Z,1.65
2023-03-25T11:27:18.306Z,1.75
2023-03-25T11:32:25.643Z,1.52
2023-03-25T11:42:33.855Z,1.15
2023-03-25T11:47:38.374Z,1.38
2023-03-25T11:52:45.608Z,1.48
2023-03-25T12:03:00.278Z,1.60
2023-03-25T12:08:11.926Z,1.50
2023-03-25T12:13:22.628Z,1.10
2023-03-25T12:18:43.352Z,1.40
2023-03-25T12:23:54.910Z,1.50
2023-03-25T12:29:19.348Z,1.80
2023-03-25T12:34:33.832Z,2.03
2023-03-25T12:39:53.510Z,1.70
2023-03-25T12:45:14.496Z,1.33
2023-03-25T12:50:29.593Z,1.77
2023-03-25T12:55:49.629Z,1.70
2023-03-25T13:00:58.317Z,2.17
2023-03-25T13:06:06.386Z,2.05
2023-03-25T13:11:17.658Z,2.30
2023-03-25T13:16:22.874Z,1.50
2023-03-25T13:21:29.228Z,1.23
2023-03-25T13:26:36.003Z,1.63
2023-03-25T13:31:42.429Z,1.08
2023-03-25T13:36:50.968Z,1.30
2023-03-25T13:42:00.216Z,1.67
2023-03-25T13:47:14.768Z,1.55
2023-03-25T13:52:18.574Z,1.30
2023-03-25T13:58:06.610Z,1.63
2023-03-25T14:03:49.691Z,1.50
2023-03-25T14:09:23.737Z,1.00
2023-03-25T14:14:28.340Z,0.90
2023-03-25T14:19:33.346Z,0.90
2023-03-25T14:24:36.359Z,1.17
2023-03-25T14:29:42.337Z,1.15
2023-03-25T14:34:46.005Z,0.90
2023-03-25T14:39:48.331Z,1.20
2023-03-25T14:44:53.378Z,1.40
2023-03-25T14:50:01.195Z,1.17
2023-03-25T14:55:09.984Z,0.90
2023-03-25T15:00:24.253Z,0.70
2023-03-25T15:05:28.662Z,0.73
2023-03-25T15:10:33.953Z,0.70
2023-03-25T15:15:56.493Z,0.90
2023-03-25T15:21:03.280Z,1.63
2023-03-25T15:26:09.872Z,1.42
2023-03-25T15:31:27.670Z,1.80
2023-03-25T15:36:43.015Z,1.48
2023-03-25T15:42:16.069Z,1.42
2023-03-25T15:47:40.288Z,1.27
2023-03-25T15:53:09.019Z,1.25
2023-03-25T15:58:17.488Z,1.20
2023-03-25T16:03:23.980Z,1.63
2023-03-25T16:08:31.491Z,1.98
2023-03-25T16:18:40.395Z,1.70
2023-03-25T16:23:42.725Z,1.20
2023-03-25T16:28:44.781Z,1.40
2023-03-25T16:33:48.811Z,1.50
2023-03-25T16:38:50.994Z,1.50
2023-03-25T16:43:54.651Z,1.45
2023-03-25T16:49:00.513Z,1.75
2023-03-25T16:54:09.591Z,1.77
2023-03-25T16:59:21.230Z,1.33
2023-03-25T17:04:26.269Z,2.45
2023-03-25T17:09:29.919Z,2.08
2023-03-25T17:14:36.093Z,2.13
2023-03-25T17:19:46.269Z,2.35
2023-03-25T17:24:54.057Z,2.45
2023-03-25T17:29:58.938Z,1.95
2023-03-25T17:35:05.450Z,2.30
2023-03-25T17:40:08.583Z,2.37
2023-03-25T17:45:15.116Z,2.47
2023-03-25T17:50:21.249Z,2.87
2023-03-25T17:55:23.404Z,2.63
2023-03-25T18:00:25.528Z,2.35
2023-03-25T18:05:29.266Z,2.42
2023-03-25T18:10:32.002Z,2.10
2023-03-25T18:15:40.984Z,2.60
2023-03-25T18:20:55.852Z,2.47
2023-03-25T18:26:03.411Z,2.55
2023-03-25T18:31:08.178Z,2.40
2023-03-25T18:36:24.317Z,3.28
2023-03-25T18:41:28.948Z,2.63
2023-03-25T18:46:43.215Z,2.65
2023-03-25T18:51:54.068Z,2.75
2023-03-25T18:57:06.194Z,2.50
2023-03-25T19:02:12.145Z,2.25
2023-03-25T19:07:17.982Z,2.63
2023-03-25T19:12:23.519Z,2.50
2023-03-25T19:17:32.506Z,2.47
2023-03-25T19:22:40.410Z,2.72
2023-03-25T19:32:58.453Z,3.28
2023-03-25T19:38:09.028Z,2.97
2023-03-25T19:43:11.797Z,2.47
2023-03-25T19:48:13.916Z,2.30
2023-03-25T19:53:19.307Z,2.45
2023-03-25T19:58:21.786Z,3.17
2023-03-25T20:03:49.583Z,2.17
2023-03-25T20:08:55.489Z,2.60
2023-03-25T20:13:57.758Z,2.65
2023-03-25T20:19:00.049Z,2.30
2023-03-25T20:24:04.176Z,2.08
2023-03-25T20:29:06.621Z,2.13
2023-03-25T20:34:08.797Z,2.35
2023-03-25T20:39:12.371Z,1.77
2023-03-25T20:44:14.674Z,3.03
2023-03-25T20:49:17.571Z,2.25
2023-03-25T20:54:22.666Z,2.30
2023-03-25T20:59:24.798Z,2.83
2023-03-25T21:04:27.074Z,2.60
2023-03-25T21:09:30.591Z,2.70
2023-03-25T21:14:32.744Z,2.22
2023-03-25T21:19:35.047Z,2.15
2023-03-25T21:24:38.569Z,1.98
2023-03-25T21:29:40.762Z,2.17
2023-03-25T21:34:42.915Z,1.73
2023-03-25T21:39:46.498Z,1.88
2023-03-25T21:44:48.676Z,1.77
2023-03-25T21:49:50.764Z,1.75
2023-03-25T21:54:54.354Z,1.73
2023-03-25T21:59:56.561Z,1.70
2023-03-25T22:04:58.601Z,1.90
2023-03-25T22:10:02.250Z,2.05
2023-03-25T22:15:05.233Z,1.75
2023-03-25T22:20:09.457Z,2.00
2023-03-25T22:25:12.992Z,1.65
2023-03-25T22:30:16.139Z,1.80
2023-03-25T22:35:18.227Z,1.88
2023-03-25T22:40:22.091Z,1.88
2023-03-25T22:45:24.254Z,1.73
2023-03-25T22:50:26.413Z,1.88
2023-03-25T22:55:29.935Z,2.22
2023-03-25T23:00:32.025Z,1.75
2023-03-25T23:05:35.734Z,1.70
2023-03-25T23:10:43.460Z,1.48
2023-03-25T23:15:45.568Z,2.30
2023-03-25T23:20:49.027Z,1.90
2023-03-25T23:26:04.439Z,1.88
2023-03-25T23:31:10.801Z,1.92
2023-03-25T23:36:13.488Z,1.80
2023-03-25T23:41:18.717Z,1.92
2023-03-25T23:46:22.321Z,1.92
2023-03-25T23:51:25.327Z,1.50
2023-03-25T23:56:29.975Z,2.70
